createdAt,value
2023-02-25T00:02:17.510Z,99574.03
2023-02-25T00:04:46.916Z,99576.31
2023-02-25T00:07:16.329Z,99574.53
2023-02-25T00:09:46.061Z,99582.53
2023-02-25T00:12:18.065Z,99593.00
2023-02-25T00:14:47.465Z,99587.97
2023-02-25T00:17:16.932Z,99591.50
2023-02-25T00:19:46.363Z,99599.91
2023-02-25T00:22:15.756Z,99602.53
2023-02-25T00:24:45.573Z,99596.84
2023-02-25T00:27:14.978Z,99605.38
2023-02-25T00:29:47.043Z,99607.91
2023-02-25T00:32:16.858Z,99610.53
2023-02-25T00:34:46.504Z,99613.75
2023-02-25T00:37:16.447Z,99616.41
2023-02-25T00:39:46.074Z,99622.00
2023-02-25T00:42:17.719Z,99615.34
2023-02-25T00:44:50.753Z,99620.94
2023-02-25T00:47:22.185Z,99621.69
2023-02-25T00:49:52.396Z,99635.50
2023-02-25T00:52:21.839Z,99642.81
2023-02-25T00:54:51.365Z,99655.47
2023-02-25T00:57:20.823Z,99654.56
2023-02-25T00:59:52.798Z,99657.00
2023-02-25T01:02:22.273Z,99668.91
2023-02-25T01:04:51.708Z,99669.72
2023-02-25T01:07:21.853Z,99679.78
2023-02-25T01:09:51.343Z,99686.81
2023-02-25T01:12:20.720Z,99681.34
2023-02-25T01:14:52.689Z,99683.22
2023-02-25T01:17:22.465Z,99695.22
2023-02-25T01:19:51.975Z,99689.25
2023-02-25T01:22:21.339Z,99687.50
2023-02-25T01:24:50.694Z,99699.34
2023-02-25T01:27:20.161Z,99703.63
2023-02-25T01:29:52.226Z,99706.28
2023-02-25T01:32:21.782Z,99700.47
2023-02-25T01:34:51.291Z,99713.28
2023-02-25T01:37:20.745Z,99721.81
2023-02-25T01:39:50.115Z,99711.25
2023-02-25T01:42:20.111Z,99715.94
2023-02-25T01:45:28.248Z,99722.78
2023-02-25T01:48:04.442Z,99722.31
2023-02-25T01:50:39.126Z,99733.72
2023-02-25T01:53:09.853Z,99713.50
2023-02-25T01:55:41.775Z,99719.97
2023-02-25T01:58:12.065Z,99725.03
2023-02-25T02:00:41.702Z,99726.22
2023-02-25T02:03:16.072Z,99720.53
2023-02-25T02:05:58.840Z,99717.81
2023-02-25T02:08:28.917Z,99727.75
2023-02-25T02:10:59.141Z,99729.22
2023-02-25T02:13:28.797Z,99725.03
2023-02-25T02:16:10.801Z,99725.22
2023-02-25T02:18:46.826Z,99726.91
2023-02-25T02:21:25.163Z,99724.94
2023-02-25T02:24:13.121Z,99736.97
2023-02-25T02:27:03.455Z,99740.47
2023-02-25T02:30:01.537Z,99743.41
2023-02-25T02:32:38.190Z,99748.50
2023-02-25T02:35:14.987Z,99752.72
2023-02-25T02:37:49.161Z,99762.75
2023-02-25T02:40:30.747Z,99769.13
2023-02-25T02:43:09.543Z,99776.81
2023-02-25T02:45:44.577Z,99795.78
2023-02-25T02:48:19.766Z,99818.78
2023-02-25T02:50:51.085Z,99829.91
2023-02-25T02:53:24.245Z,99839.91
2023-02-25T02:55:56.009Z,99854.25
2023-02-25T02:58:30.823Z,99862.69
2023-02-25T03:01:04.431Z,99877.34
2023-02-25T03:03:39.879Z,99882.44
2023-02-25T03:06:12.194Z,99896.63
2023-02-25T03:08:47.487Z,99910.09
2023-02-25T03:11:17.471Z,99910.75
2023-02-25T03:13:47.158Z,99911.56
2023-02-25T03:16:21.388Z,99919.66
2023-02-25T03:18:56.442Z,99922.72
2023-02-25T03:21:29.672Z,99936.00
2023-02-25T03:23:59.413Z,99937.47
2023-02-25T03:26:31.127Z,99933.84
2023-02-25T03:29:00.823Z,99939.59
2023-02-25T03:31:32.774Z,99944.56
2023-02-25T03:34:06.944Z,99945.59
2023-02-25T03:36:38.027Z,99948.56
2023-02-25T03:39:09.864Z,99946.16
2023-02-25T03:41:44.705Z,99952.59
2023-02-25T03:44:16.589Z,99952.69
2023-02-25T03:46:47.561Z,99957.09
2023-02-25T03:49:23.511Z,99960.88
2023-02-25T03:51:54.772Z,99965.09
2023-02-25T03:54:24.181Z,99969.75
2023-02-25T03:56:54.468Z,99970.88
2023-02-25T03:59:26.252Z,99972.03
2023-02-25T04:01:57.274Z,99980.22
2023-02-25T04:04:29.411Z,99968.53
2023-02-25T04:06:58.894Z,99984.88
2023-02-25T04:09:28.342Z,99987.53
2023-02-25T04:11:58.366Z,99986.44
2023-02-25T04:14:28.048Z,99990.97
2023-02-25T04:16:57.529Z,99994.63
2023-02-25T04:19:29.537Z,99989.09
2023-02-25T04:22:00.457Z,99994.84
2023-02-25T04:24:29.885Z,99999.03
2023-02-25T04:27:01.642Z,99995.03
2023-02-25T04:29:31.291Z,99994.84
2023-02-25T04:32:01.231Z,99989.09
2023-02-25T04:34:33.321Z,99994.84
2023-02-25T04:37:04.713Z,100000.41
2023-02-25T04:39:35.080Z,99995.63
2023-02-25T04:42:04.832Z,100002.16
2023-02-25T04:44:34.235Z,99988.69
2023-02-25T04:47:03.849Z,99992.31
2023-02-25T04:49:45.114Z,99983.59
2023-02-25T04:52:15.311Z,99992.22
2023-02-25T04:54:45.159Z,99977.09
2023-02-25T04:57:15.238Z,99979.53
2023-02-25T04:59:44.628Z,99984.69
2023-02-25T05:02:14.043Z,99986.69
2023-02-25T05:04:46.159Z,99979.84
2023-02-25T05:07:15.581Z,99986.56
2023-02-25T05:09:45.043Z,99973.88
2023-02-25T05:12:14.772Z,99987.34
2023-02-25T05:14:44.406Z,99988.56
2023-02-25T05:17:15.879Z,99988.56
2023-02-25T05:19:47.851Z,99989.09
2023-02-25T05:22:17.361Z,99986.03
2023-02-25T05:24:46.773Z,99987.88
2023-02-25T05:27:16.216Z,99988.88
2023-02-25T05:29:45.693Z,99984.44
2023-02-25T05:32:15.267Z,99993.84
2023-02-25T05:34:47.318Z,99993.63
2023-02-25T05:37:16.730Z,99994.84
2023-02-25T05:39:46.316Z,99997.38
2023-02-25T05:42:15.730Z,100000.47
2023-02-25T05:44:45.120Z,100000.59
2023-02-25T05:47:15.260Z,100002.47
2023-02-25T05:49:47.291Z,100003.31
2023-02-25T05:52:17.252Z,100012.50
2023-02-25T05:54:48.199Z,100025.09
2023-02-25T05:57:17.628Z,100025.31
2023-02-25T05:59:47.477Z,100032.16
2023-02-25T06:02:16.926Z,100031.72
2023-02-25T06:04:49.003Z,100035.47
2023-02-25T06:07:18.347Z,100027.63
2023-02-25T06:09:47.961Z,100042.97
2023-02-25T06:12:17.419Z,100040.88
2023-02-25T06:14:46.796Z,100044.31
2023-02-25T06:17:16.246Z,100051.50
2023-02-25T06:19:45.686Z,100059.13
2023-02-25T06:22:17.731Z,100067.47
2023-02-25T06:24:47.229Z,100065.72
2023-02-25T06:27:16.767Z,100075.88
2023-02-25T06:29:46.150Z,100077.66
2023-02-25T06:32:15.668Z,100085.84
2023-02-25T06:34:45.252Z,100083.41
2023-02-25T06:37:18.303Z,100087.06
2023-02-25T06:39:47.772Z,100090.13
2023-02-25T06:42:17.140Z,100097.09
2023-02-25T06:44:46.571Z,100096.78
2023-02-25T06:47:15.985Z,100100.84
2023-02-25T06:49:45.505Z,100098.88
2023-02-25T06:52:17.923Z,100095.00
2023-02-25T06:54:47.376Z,100097.44
2023-02-25T06:57:16.836Z,100098.22
2023-02-25T06:59:46.257Z,100099.75
2023-02-25T07:02:15.800Z,100096.69
2023-02-25T07:04:45.359Z,100075.06
2023-02-25T07:07:17.538Z,100080.88
2023-02-25T07:09:46.910Z,100067.66
2023-02-25T07:12:16.403Z,100065.88
2023-02-25T07:14:45.779Z,100063.44
2023-02-25T07:17:15.187Z,100071.75
2023-02-25T07:19:44.569Z,100075.25
2023-02-25T07:22:18.443Z,100081.19
2023-02-25T07:24:48.538Z,100088.06
2023-02-25T07:27:17.992Z,100097.66
2023-02-25T07:29:47.411Z,100103.81
2023-02-25T07:32:17.078Z,100119.63
2023-02-25T07:34:46.868Z,100117.19
2023-02-25T07:37:18.879Z,100128.66
2023-02-25T07:39:48.310Z,100138.28
2023-02-25T07:42:17.756Z,100152.72
2023-02-25T07:44:47.163Z,100160.47
2023-02-25T07:47:16.574Z,100166.19
2023-02-25T07:49:45.941Z,100174.06
2023-02-25T07:52:17.895Z,100170.41
2023-02-25T07:54:47.272Z,100179.47
2023-02-25T07:57:16.700Z,100175.84
2023-02-25T07:59:46.107Z,100187.53
2023-02-25T08:02:15.680Z,100185.09
2023-02-25T08:04:45.160Z,100188.84
2023-02-25T08:07:14.630Z,100194.03
2023-02-25T08:09:46.686Z,100207.38
2023-02-25T08:12:16.132Z,100206.59
2023-02-25T08:14:46.266Z,100222.09
2023-02-25T08:17:16.022Z,100236.09
2023-02-25T08:19:45.428Z,100233.03
2023-02-25T08:22:14.834Z,100234.09
2023-02-25T08:24:46.846Z,100224.50
2023-02-25T08:27:16.420Z,100208.94
2023-02-25T08:29:45.790Z,100200.81
2023-02-25T08:32:15.294Z,100213.28
2023-02-25T08:34:46.658Z,100215.53
2023-02-25T08:37:17.193Z,100216.63
2023-02-25T08:39:49.214Z,100216.50
2023-02-25T08:42:19.097Z,100238.34
2023-02-25T08:44:48.550Z,100239.47
2023-02-25T08:47:18.221Z,100246.50
2023-02-25T08:49:47.604Z,100265.38
2023-02-25T08:52:17.500Z,100277.53
2023-02-25T08:54:50.911Z,100289.78
2023-02-25T08:57:20.328Z,100294.34
2023-02-25T08:59:49.736Z,100317.88
2023-02-25T09:02:19.162Z,100315.44
2023-02-25T09:04:48.695Z,100338.19
2023-02-25T09:07:18.315Z,100346.50
2023-02-25T09:09:50.399Z,100357.97
2023-02-25T09:12:19.843Z,100357.84
2023-02-25T09:14:50.241Z,100384.75
2023-02-25T09:17:19.855Z,100386.97
2023-02-25T09:19:49.318Z,100373.50
2023-02-25T09:22:19.766Z,100390.28
2023-02-25T09:24:51.788Z,100389.50
2023-02-25T09:27:21.226Z,100397.13
2023-02-25T09:29:50.597Z,100411.94
2023-02-25T09:32:21.473Z,100411.53
2023-02-25T09:34:52.817Z,100425.44
2023-02-25T09:37:22.340Z,100434.56
2023-02-25T09:39:54.716Z,100432.34
2023-02-25T09:42:25.989Z,100443.84
2023-02-25T09:44:57.987Z,100453.25
2023-02-25T09:47:32.163Z,100455.81
2023-02-25T09:50:03.764Z,100468.19
2023-02-25T09:52:35.498Z,100480.13
2023-02-25T09:55:11.070Z,100486.34
2023-02-25T09:57:43.589Z,100487.75
2023-02-25T10:00:21.244Z,100509.25
2023-02-25T10:02:53.892Z,100508.34
2023-02-25T10:05:26.947Z,100524.16
2023-02-25T10:08:02.265Z,100540.31
2023-02-25T10:10:42.242Z,100552.63
2023-02-25T10:13:23.785Z,100558.25
2023-02-25T10:15:59.146Z,100552.38
2023-02-25T10:18:41.500Z,100564.78
2023-02-25T10:21:15.267Z,100579.63
2023-02-25T10:24:06.318Z,100579.72
2023-02-25T10:26:41.862Z,100591.03
2023-02-25T10:29:21.483Z,100592.59
2023-02-25T10:31:51.301Z,100592.50
2023-02-25T10:34:26.092Z,100590.03
2023-02-25T10:36:57.994Z,100598.78
2023-02-25T10:39:29.083Z,100598.53
2023-02-25T10:42:01.213Z,100618.09
2023-02-25T10:44:30.619Z,100610.53
2023-02-25T10:47:03.927Z,100618.00
2023-02-25T10:49:38.303Z,100622.56
2023-02-25T10:52:10.351Z,100620.22
2023-02-25T10:54:49.238Z,100635.91
2023-02-25T10:57:25.976Z,100628.50
2023-02-25T11:00:04.794Z,100647.50
2023-02-25T11:02:44.188Z,100651.63
2023-02-25T11:05:36.260Z,100653.22
2023-02-25T11:08:08.716Z,100651.69
2023-02-25T11:10:38.124Z,100666.72
2023-02-25T11:13:30.911Z,100668.31
2023-02-25T11:16:02.533Z,100674.34
2023-02-25T11:18:34.345Z,100687.63
2023-02-25T11:21:07.244Z,100696.81
2023-02-25T11:23:39.151Z,100702.16
2023-02-25T11:26:09.397Z,100701.75
2023-02-25T11:28:47.587Z,100707.25
2023-02-25T11:31:20.421Z,100707.75
2023-02-25T11:33:55.636Z,100711.22
2023-02-25T11:36:26.150Z,100712.69
2023-02-25T11:39:10.272Z,100722.84
2023-02-25T11:41:39.692Z,100737.09
2023-02-25T11:44:22.959Z,100747.81
2023-02-25T11:47:00.138Z,100748.63
2023-02-25T11:49:37.544Z,100754.63
2023-02-25T11:52:12.149Z,100757.00
2023-02-25T11:54:47.471Z,100772.34
2023-02-25T11:57:22.172Z,100792.31
2023-02-25T12:00:00.566Z,100809.03
2023-02-25T12:02:39.174Z,100808.22
2023-02-25T12:05:43.781Z,100791.84
2023-02-25T12:08:25.863Z,100796.81
2023-02-25T12:11:06.770Z,100801.41
2023-02-25T12:14:02.766Z,100806.38
2023-02-25T12:17:20.099Z,100805.53
2023-02-25T12:20:17.847Z,100807.16
2023-02-25T12:23:04.804Z,100817.22
2023-02-25T12:25:39.567Z,100819.59
2023-02-25T12:28:49.832Z,100818.25
2023-02-25T12:31:39.134Z,100815.44
2023-02-25T12:34:21.101Z,100812.66
2023-02-25T12:37:03.068Z,100824.09
2023-02-25T12:39:59.445Z,100818.06
2023-02-25T12:42:39.934Z,100813.06
2023-02-25T12:45:29.348Z,100805.06
2023-02-25T12:48:19.133Z,100805.00
2023-02-25T12:51:00.756Z,100779.34
2023-02-25T12:53:40.415Z,100753.06
2023-02-25T12:56:16.878Z,100722.34
2023-02-25T12:58:51.017Z,100667.19
2023-02-25T13:01:44.902Z,100626.09
2023-02-25T13:04:45.209Z,100614.03
2023-02-25T13:07:44.492Z,100603.00
2023-02-25T13:10:40.072Z,100615.66
2023-02-25T13:13:27.055Z,100603.84
2023-02-25T13:16:04.270Z,100604.00
2023-02-25T13:18:40.485Z,100610.91
2023-02-25T13:21:30.624Z,100626.16
2023-02-25T13:24:28.926Z,100588.47
2023-02-25T13:27:15.236Z,100580.47
2023-02-25T13:30:00.430Z,100572.13
2023-02-25T13:32:37.167Z,100575.69
2023-02-25T13:35:27.024Z,100561.22
2023-02-25T13:38:04.885Z,100534.88
2023-02-25T13:40:47.906Z,100553.06
2023-02-25T13:43:46.381Z,100560.84
2023-02-25T13:46:26.805Z,100554.25
2023-02-25T13:49:20.533Z,100543.56
2023-02-25T13:52:07.361Z,100501.03
2023-02-25T13:54:58.703Z,100460.31
2023-02-25T13:57:38.206Z,100447.41
2023-02-25T14:00:42.044Z,100408.72
2023-02-25T14:03:41.304Z,100438.81
2023-02-25T14:06:21.320Z,100510.03
2023-02-25T14:08:59.821Z,100527.91
2023-02-25T14:11:40.007Z,100550.53
2023-02-25T14:14:28.609Z,100558.16
2023-02-25T14:17:19.280Z,100565.88
2023-02-25T14:19:55.996Z,100574.91
2023-02-25T14:22:35.519Z,100575.09
2023-02-25T14:25:15.394Z,100574.47
2023-02-25T14:27:51.443Z,100579.69
2023-02-25T14:30:26.255Z,100584.38
2023-02-25T14:33:09.325Z,100590.44
2023-02-25T14:35:57.611Z,100593.16
2023-02-25T14:38:36.614Z,100598.75
2023-02-25T14:41:27.500Z,100602.41
2023-02-25T14:43:58.698Z,100606.03
2023-02-25T14:46:34.659Z,100608.47
2023-02-25T14:49:11.511Z,100604.03
2023-02-25T14:52:14.202Z,100599.94
2023-02-25T14:55:15.977Z,100615.06
2023-02-25T14:58:17.963Z,100612.81
2023-02-25T15:01:04.722Z,100623.72
2023-02-25T15:04:00.625Z,100619.44
2023-02-25T15:06:54.267Z,100622.81
2023-02-25T15:09:49.950Z,100640.28
2023-02-25T15:12:30.222Z,100662.31
2023-02-25T15:15:27.816Z,100510.88
2023-02-25T15:18:27.362Z,100459.91
2023-02-25T15:20:57.390Z,100649.78
2023-02-25T15:23:45.191Z,100781.13
2023-02-25T15:26:27.236Z,100844.75
2023-02-25T15:28:57.566Z,100880.28
2023-02-25T15:31:31.012Z,100839.06
2023-02-25T15:34:33.007Z,100809.13
2023-02-25T15:37:30.755Z,100757.66
2023-02-25T15:40:20.302Z,100716.72
2023-02-25T15:42:53.145Z,100695.81
2023-02-25T15:45:47.369Z,100683.13
2023-02-25T15:48:37.974Z,100647.25
2023-02-25T15:51:14.622Z,100586.41
2023-02-25T15:53:48.069Z,100540.06
2023-02-25T15:57:00.406Z,100549.63
2023-02-25T15:59:49.316Z,100587.75
2023-02-25T16:02:43.669Z,100616.59
2023-02-25T16:05:27.082Z,100629.19
2023-02-25T16:08:06.962Z,100636.03
2023-02-25T16:10:44.608Z,100633.38
2023-02-25T16:13:16.882Z,100621.44
2023-02-25T16:15:51.175Z,100628.06
2023-02-25T16:18:31.524Z,100628.28
2023-02-25T16:21:04.431Z,100618.38
2023-02-25T16:23:34.344Z,100623.47
2023-02-25T16:26:09.831Z,100654.44
2023-02-25T16:28:45.150Z,100645.78
2023-02-25T16:31:21.445Z,100659.38
2023-02-25T16:33:55.047Z,100661.63
2023-02-25T16:36:32.038Z,100666.91
2023-02-25T16:39:04.802Z,100654.16
2023-02-25T16:41:38.581Z,100640.13
2023-02-25T16:44:09.081Z,100643.94
2023-02-25T16:46:42.000Z,100660.94
2023-02-25T16:49:14.680Z,100685.28
2023-02-25T16:51:46.341Z,100685.78
2023-02-25T16:54:18.354Z,100683.41
2023-02-25T16:56:50.096Z,100696.09
2023-02-25T16:59:21.932Z,100709.59
2023-02-25T17:01:58.677Z,100710.13
2023-02-25T17:04:32.336Z,100705.28
2023-02-25T17:07:10.254Z,100698.72
2023-02-25T17:09:46.228Z,100673.44
2023-02-25T17:12:19.260Z,100645.50
2023-02-25T17:14:50.952Z,100604.75
2023-02-25T17:17:26.604Z,100610.03
2023-02-25T17:19:56.685Z,100595.28
2023-02-25T17:22:27.361Z,100587.25
2023-02-25T17:24:58.558Z,100558.13
2023-02-25T17:27:28.718Z,100555.59
2023-02-25T17:29:58.339Z,100550.41
2023-02-25T17:32:31.982Z,100555.38
2023-02-25T17:35:04.986Z,100552.47
2023-02-25T17:37:35.655Z,100557.44
2023-02-25T17:40:05.286Z,100555.00
2023-02-25T17:42:36.447Z,100566.19
2023-02-25T17:45:08.752Z,100571.03
2023-02-25T17:47:40.808Z,100560.13
2023-02-25T17:50:25.643Z,100552.44
2023-02-25T17:52:55.340Z,100555.59
2023-02-25T17:55:27.720Z,100557.09
2023-02-25T17:58:01.614Z,100571.34
2023-02-25T18:00:32.551Z,100566.13
2023-02-25T18:03:19.467Z,100571.88
2023-02-25T18:05:53.969Z,100571.63
2023-02-25T18:08:25.187Z,100570.13
2023-02-25T18:11:00.784Z,100583.31
2023-02-25T18:13:35.610Z,100587.38
2023-02-25T18:16:26.445Z,100602.19
2023-02-25T18:18:59.873Z,100603.88
2023-02-25T18:21:29.974Z,100623.38
2023-02-25T18:23:59.413Z,100640.91
2023-02-25T18:26:29.030Z,100655.75
2023-02-25T18:29:00.336Z,100675.00
2023-02-25T18:31:32.151Z,100686.03
2023-02-25T18:34:04.534Z,100705.06
2023-02-25T18:36:33.953Z,100718.13
2023-02-25T18:39:06.282Z,100724.34
2023-02-25T18:41:36.121Z,100740.31
2023-02-25T18:44:05.525Z,100762.19
2023-02-25T18:46:34.997Z,100777.06
2023-02-25T18:49:07.017Z,100789.97
2023-02-25T18:51:36.599Z,100783.13
2023-02-25T18:54:06.384Z,100787.19
2023-02-25T18:56:35.814Z,100773.00
2023-02-25T18:59:07.141Z,100783.41
2023-02-25T19:01:36.912Z,100776.28
2023-02-25T19:04:08.980Z,100789.47
2023-02-25T19:06:38.399Z,100779.31
2023-02-25T19:09:07.872Z,100770.94
2023-02-25T19:11:38.666Z,100774.88
2023-02-25T19:14:08.634Z,100773.84
2023-02-25T19:16:38.133Z,100770.66
2023-02-25T19:19:10.132Z,100779.53
2023-02-25T19:21:39.522Z,100788.69
2023-02-25T19:24:11.342Z,100786.38
2023-02-25T19:26:41.721Z,100800.59
2023-02-25T19:29:11.100Z,100808.69
2023-02-25T19:31:40.707Z,100830.00
2023-02-25T19:34:12.724Z,100832.25
2023-02-25T19:36:42.155Z,100853.69
2023-02-25T19:39:11.550Z,100879.81
2023-02-25T19:41:40.966Z,100922.00
2023-02-25T19:44:10.392Z,100966.13
2023-02-25T19:46:39.792Z,101011.78
2023-02-25T19:49:11.807Z,101031.75
2023-02-25T19:51:41.327Z,101039.09
2023-02-25T19:54:10.706Z,101055.34
2023-02-25T19:56:40.139Z,101054.78
2023-02-25T19:59:11.820Z,101076.56
2023-02-25T20:01:41.845Z,101131.19
2023-02-25T20:04:14.050Z,101210.53
2023-02-25T20:06:43.514Z,101297.88
2023-02-25T20:09:13.104Z,101359.00
2023-02-25T20:11:43.117Z,101400.84
2023-02-25T20:14:13.775Z,101380.00
2023-02-25T20:16:43.261Z,101363.59
2023-02-25T20:19:15.255Z,101334.69
2023-02-25T20:21:44.980Z,101341.25
2023-02-25T20:24:14.599Z,101339.59
2023-02-25T20:26:44.006Z,101336.63
2023-02-25T20:29:13.379Z,101345.53
2023-02-25T20:31:43.323Z,101342.41
2023-02-25T20:34:18.031Z,101360.72
2023-02-25T20:36:52.299Z,101368.91
2023-02-25T20:39:34.506Z,101362.63
2023-02-25T20:42:04.546Z,101340.75
2023-02-25T20:44:34.445Z,101341.50
2023-02-25T20:47:04.162Z,101339.72
2023-02-25T20:49:38.274Z,101333.00
2023-02-25T20:52:08.160Z,101331.38
2023-02-25T20:54:38.123Z,101331.97
2023-02-25T20:57:07.612Z,101352.38
2023-02-25T20:59:37.018Z,101355.59
2023-02-25T21:02:06.489Z,101369.91
2023-02-25T21:04:38.472Z,101378.28
2023-02-25T21:07:08.595Z,101381.53
2023-02-25T21:09:38.128Z,101372.09
2023-02-25T21:12:08.471Z,101347.81
2023-02-25T21:14:38.115Z,101330.84
2023-02-25T21:17:09.645Z,101316.50
2023-02-25T21:19:42.090Z,101307.88
2023-02-25T21:22:11.550Z,101281.47
2023-02-25T21:24:41.030Z,101250.06
2023-02-25T21:27:10.407Z,101238.03
2023-02-25T21:29:39.812Z,101232.81
2023-02-25T21:32:09.276Z,101228.06
2023-02-25T21:34:41.309Z,101226.56
2023-02-25T21:37:10.803Z,101248.31
2023-02-25T21:39:41.004Z,101242.19
2023-02-25T21:42:10.504Z,101244.53
2023-02-25T21:44:39.895Z,101234.59
2023-02-25T21:47:09.358Z,101229.53
2023-02-25T21:49:41.437Z,101231.03
2023-02-25T21:52:10.875Z,101227.75
2023-02-25T21:54:40.252Z,101224.47
2023-02-25T21:57:09.625Z,101219.75
2023-02-25T21:59:39.080Z,101225.09
2023-02-25T22:02:08.531Z,101226.75
2023-02-25T22:04:38.107Z,101232.81
2023-02-25T22:07:10.076Z,101233.13
2023-02-25T22:09:39.439Z,101238.47
2023-02-25T22:12:08.921Z,101247.84
2023-02-25T22:14:38.303Z,101258.72
2023-02-25T22:17:07.723Z,101252.75
2023-02-25T22:19:37.150Z,101260.19
2023-02-25T22:22:06.715Z,101269.56
2023-02-25T22:24:39.988Z,101256.94
2023-02-25T22:27:09.454Z,101261.81
2023-02-25T22:29:38.913Z,101259.25
2023-02-25T22:32:08.439Z,101261.38
2023-02-25T22:34:37.858Z,101257.81
2023-02-25T22:37:07.253Z,101274.38
2023-02-25T22:39:39.470Z,101268.13
2023-02-25T22:42:09.172Z,101272.88
2023-02-25T22:44:38.728Z,101280.03
2023-02-25T22:47:08.137Z,101283.47
2023-02-25T22:49:37.923Z,101277.09
2023-02-25T22:52:07.346Z,101277.41
2023-02-25T22:54:39.495Z,101277.13
2023-02-25T22:57:09.329Z,101278.03
2023-02-25T22:59:39.011Z,101280.97
2023-02-25T23:02:08.420Z,101283.97
2023-02-25T23:04:37.813Z,101275.97
2023-02-25T23:07:07.541Z,101291.25
2023-02-25T23:09:40.546Z,101290.19
2023-02-25T23:12:10.260Z,101287.81
2023-02-25T23:14:39.628Z,101292.59
2023-02-25T23:17:09.250Z,101302.38
2023-02-25T23:19:38.861Z,101309.38
2023-02-25T23:22:09.701Z,101314.25
2023-02-25T23:24:44.187Z,101318.56
2023-02-25T23:27:14.666Z,101323.50
2023-02-25T23:29:44.428Z,101330.00
2023-02-25T23:32:14.189Z,101336.72
2023-02-25T23:34:43.748Z,101345.06
2023-02-25T23:37:15.180Z,101343.97
2023-02-25T23:39:47.261Z,101348.44
2023-02-25T23:42:16.680Z,101366.00
2023-02-25T23:44:46.129Z,101368.97
2023-02-25T23:47:15.954Z,101377.59
2023-02-25T23:49:45.387Z,101387.13
2023-02-25T23:52:15.086Z,101393.66
2023-02-25T23:54:47.100Z,101408.66
2023-02-25T23:57:16.523Z,101411.19
2023-02-25T23:59:46.096Z,101417.72
